Terminal Aerodrome Forecast
Issued by NWS

Home | Current Version | Previous Version | Text Only | Print | Product List | Glossary On
Versions: 1 2 3 4 5 6 7 8 9 10 11 12 13 14 15 16 17 18
000
FTUS44 KMAF 221700
TAFFST
TAF
KFST 221722Z 2218/2318 13009KT P6SM FEW200
     FM222200 15014G19KT P6SM SCT080 SCT250
     FM230800 17009KT P6SM BKN200=

USA.gov is the U.S. government's official web portal to all federal, state and local government web resources and services.